Purcell, MO (64857)

09:13 AM CDT del 01 Ottobre 2014 (GMT -0500)
Country Side Estates | Change Station
CLOSE
Current Station
Stazione meteo personale
Location: Webb City, MO
Altitudine: 968 ft
Stazioni meteo nelle vicinanze

Alt. 968 ft 37.16 °N, 94.48 °W | Updated 14 minutes ago

Coperto
Coperto
75.9 °F
Sembra 78 °F
N
2.7
Vento Variabile Vento da Ovest

Oggi
Massima -- | Minima -- °F
--% Possibilità di precip.
Ieri
Massima -- | Minima -- °F
Precip. -- in
7:13 AM 7:00 PM
Luna crescente, 48% visible
Pressione 29.81 in
Visibilità 10.0 miglia
Nuvole Sereno
Indice di calore 78 °F
Punto di rugiada 65 °F
Umidità 70%
Piovosità 0.00 in
Spessore del manto nevoso Non disponibile.
Raggi UV 1 fuori da 12
Polline 5.00 fuori da 12
Qualità dell'aria Non disponibile.
Flu Activity Non disponibile.
METAR KJLN 011353Z 18012G17KT 10SM CLR 23/17 A2983 RMK AO2 SLP092 T02280172

More Conditions Fewer Conditions

Pressione 29.81 in
Visibilità 10.0 miglia
Nuvole Sereno
Indice di calore 78 °F
Punto di rugiada 65 °F
Umidità 70%
Piovosità 0.00 in
Spessore del manto nevoso Non disponibile.
Raggi UV 1 fuori da 12
Polline 5.00 fuori da 12
Qualità dell'aria Non disponibile.
Flu Activity Non disponibile.
METAR KJLN 011353Z 18012G17KT 10SM CLR 23/17 A2983 RMK AO2 SLP092 T02280172

More Conditions Fewer Conditions

10-Day Weather Forecast

Almanac

Astronomia

Oct. 01, 2014 Alba Tramonto
Ora attuale 07:13 CDT 19:00 CDT
Crepuscolo civile 06:47 CDT 19:26 CDT
Crepuscolo nautico 06:16 CDT 19:57 CDT
Crepuscolo astronomico 05:46 CDT 20:27 CDT
Luna 14:09 CDT Nessun tramonto lunare
Estensione della luce visibile 12h 39m
Lunghezza del giorno
11h 47m
Tomorrow will be 2m 22s shorter.
Luna crescente, 48% of the Moon is Illuminated
Oggi
Luna crescente
Ott 1
Primo quarto
Ott 8
Luna piena
Ott 15
Ultimo quarto
Ott 23
Nuovo

Gli estremi di oggi

State Highs State Lows

Community

WunderPhotos

Upload Photos

1,757,952 foto caricate!

Nearby

Profondità neve

Stazione Profondità Altitudine
Non sono state evidenziate nuove nevicate

Attività sismica

Città  Distanza Mag. Data & Ora
Parsons, Kansas 53 miglia 3.0 19:33 CDT
2014-09-30
Minimo Magnitudo Mostrato è 2.5.

Temperature delle acque costiere

Località Temperatura
Nessun dato dalle stazioni

Stazioni meteo nelle vicinanze